Van Nuys Airport Van Nuys US
ICAO: KVNY
IATA: VNY
Category: Medium
Scheduled Services: No

Elevation: 802 ft
TransAlt. 18000 ft.

Airport Communications:
SOCAL APP/DEP:120.4
ATIS:118.45
CLNC DEL:126.6
CTAF:119.3
GND:121.7
TWR:119
UNICOM:122.95

KVNY Zoom In..

Runways:

(A) RW 16L length 4013 ft width 75 ft
---- / hdg 161

(B) RW 16R length 8001 ft width 150 ft
ILS 111.30 / hdg 161

(C) RW 34L length 8001 ft width 150 ft
---- / hdg 341

(D) RW 34R length 4013 ft width 75 ft
---- / hdg 341

Location; KVNY
Day. 05 / Time. 16.51 Zulu
* Altimeter: 29.94
* Temperature: 28° c. 82.4°f.
* Wind from: VRB° Speed 05 kn.
Dewpoint: 09° c.
Visibility: 6 Statute Miles.
Clouds: Clear (automated report).
Conditions: Haze.

KVNY 051651Z VRB05KT 6SM HZ CLR 28/09 A2994 RMK AO2 SLP128 T02830089

Going to: --> -->


Wind From VRB°
Speed 05 kn.

 
 
jpsmedia worldairports.se 2020   terms of use